createdAt,value
2023-01-12T00:01:53.957Z,7.80
2023-01-12T00:04:20.698Z,7.80
2023-01-12T00:06:47.992Z,7.80
2023-01-12T00:09:14.790Z,7.80
2023-01-12T00:11:41.646Z,7.90
2023-01-12T00:14:09.277Z,7.90
2023-01-12T00:16:40.752Z,7.80
2023-01-12T00:19:18.275Z,7.70
2023-01-12T00:21:56.373Z,7.90
2023-01-12T00:24:25.671Z,7.70
2023-01-12T00:26:53.122Z,7.60
2023-01-12T00:29:20.254Z,7.60
2023-01-12T00:31:47.117Z,7.60
2023-01-12T00:34:14.688Z,7.50
2023-01-12T00:36:41.604Z,7.60
2023-01-12T00:39:08.390Z,7.60
2023-01-12T00:41:56.017Z,7.70
2023-01-12T00:44:41.433Z,7.70
2023-01-12T00:47:09.229Z,7.70
2023-01-12T00:49:37.468Z,7.70
2023-01-12T00:52:06.007Z,7.80
2023-01-12T00:54:36.173Z,7.80
2023-01-12T00:57:03.546Z,7.70
2023-01-12T00:59:30.238Z,7.70
2023-01-12T01:01:57.430Z,7.70
2023-01-12T01:04:24.427Z,7.80
2023-01-12T01:06:51.179Z,7.90
2023-01-12T01:09:17.855Z,7.80
2023-01-12T01:11:44.583Z,7.80
2023-01-12T01:14:11.283Z,7.80
2023-01-12T01:16:37.979Z,7.80
2023-01-12T01:19:05.863Z,7.80
2023-01-12T01:21:33.915Z,7.80
2023-01-12T01:24:00.907Z,7.90
2023-01-12T01:26:30.648Z,8.00
2023-01-12T01:28:57.839Z,8.00
2023-01-12T01:31:26.333Z,7.80
2023-01-12T01:33:53.694Z,7.80
2023-01-12T01:36:21.583Z,7.90
2023-01-12T01:38:49.611Z,7.90
2023-01-12T01:41:23.695Z,7.90
2023-01-12T01:43:58.313Z,7.90
2023-01-12T01:46:50.710Z,8.00
2023-01-12T01:49:34.937Z,8.00
2023-01-12T01:52:42.120Z,7.70
2023-01-12T01:55:14.253Z,7.70
2023-01-12T01:57:50.743Z,7.70
2023-01-12T02:00:18.315Z,7.80
2023-01-12T02:02:47.128Z,7.80
2023-01-12T02:05:19.929Z,8.00
2023-01-12T02:07:48.564Z,7.90
2023-01-12T02:10:15.596Z,8.10
2023-01-12T02:13:00.827Z,7.90
2023-01-12T02:15:54.213Z,7.90
2023-01-12T02:18:39.394Z,7.90
2023-01-12T02:21:12.627Z,7.80
2023-01-12T02:23:49.505Z,7.80
2023-01-12T02:26:29.013Z,7.90
2023-01-12T02:29:12.681Z,7.90
2023-01-12T02:31:58.934Z,8.10
2023-01-12T02:35:11.124Z,8.00
2023-01-12T02:37:53.250Z,7.90
2023-01-12T02:40:41.488Z,7.90
2023-01-12T02:43:36.233Z,8.00
2023-01-12T02:46:21.550Z,8.00
2023-01-12T02:48:56.522Z,8.00
2023-01-12T02:51:39.620Z,7.90
2023-01-12T02:54:10.870Z,7.80
2023-01-12T02:56:47.542Z,7.90
2023-01-12T02:59:16.594Z,7.80
2023-01-12T03:01:47.316Z,7.90
2023-01-12T03:04:16.908Z,7.90
2023-01-12T03:06:51.613Z,7.90
2023-01-12T03:09:19.035Z,7.80
2023-01-12T03:11:48.884Z,7.90
2023-01-12T03:14:17.102Z,7.90
2023-01-12T03:16:43.921Z,8.00
2023-01-12T03:19:16.438Z,7.90
2023-01-12T03:21:48.034Z,7.80
2023-01-12T03:24:17.732Z,7.80
2023-01-12T03:26:49.284Z,7.80
2023-01-12T03:29:29.650Z,7.90
2023-01-12T03:31:56.845Z,7.90
2023-01-12T03:34:23.972Z,7.80
2023-01-12T03:37:12.980Z,7.90
2023-01-12T03:40:00.643Z,7.80
2023-01-12T03:42:37.950Z,7.90
2023-01-12T03:45:45.277Z,8.00
2023-01-12T03:48:45.271Z,7.90
2023-01-12T03:51:23.491Z,8.00
2023-01-12T03:53:51.762Z,7.90
2023-01-12T03:56:23.266Z,7.90
2023-01-12T03:58:51.495Z,7.90
2023-01-12T04:01:18.342Z,7.90
2023-01-12T04:03:45.088Z,7.90
2023-01-12T04:06:11.819Z,8.00
2023-01-12T04:08:38.664Z,8.10
2023-01-12T04:11:26.579Z,8.10
2023-01-12T04:13:53.556Z,8.10
2023-01-12T04:16:20.268Z,8.10
2023-01-12T04:18:46.993Z,8.00
2023-01-12T04:21:32.478Z,7.90
2023-01-12T04:24:00.337Z,7.90
2023-01-12T04:26:27.051Z,7.90
2023-01-12T04:28:53.730Z,8.00
2023-01-12T04:31:20.410Z,8.00
2023-01-12T04:33:47.148Z,8.00
2023-01-12T04:36:13.917Z,8.00
2023-01-12T04:38:41.146Z,8.00
2023-01-12T04:41:08.935Z,8.00
2023-01-12T04:43:36.065Z,7.90
2023-01-12T04:46:10.364Z,7.70
2023-01-12T04:48:40.726Z,7.80
2023-01-12T04:51:07.465Z,7.70
2023-01-12T04:53:34.122Z,7.70
2023-01-12T04:56:04.451Z,7.70
2023-01-12T04:58:31.595Z,7.60
2023-01-12T05:00:58.364Z,7.60
2023-01-12T05:03:25.029Z,7.60
2023-01-12T05:05:51.708Z,7.60
2023-01-12T05:08:37.055Z,7.70
2023-01-12T05:11:03.805Z,7.70
2023-01-12T05:13:31.728Z,7.60
2023-01-12T05:16:08.812Z,7.50
2023-01-12T05:18:35.526Z,7.60
2023-01-12T05:21:02.281Z,7.50
2023-01-12T05:23:28.990Z,7.60
2023-01-12T05:26:02.402Z,7.70
2023-01-12T05:28:29.457Z,7.60
2023-01-12T05:31:06.425Z,7.70
2023-01-12T05:33:33.308Z,7.70
2023-01-12T05:36:03.159Z,7.70
2023-01-12T05:38:29.905Z,7.70
2023-01-12T05:41:00.417Z,7.60
2023-01-12T05:43:46.703Z,7.60
2023-01-12T05:46:14.139Z,7.70
2023-01-12T05:48:41.227Z,7.70
2023-01-12T05:51:10.146Z,7.90
2023-01-12T05:53:37.115Z,7.80
2023-01-12T05:56:11.126Z,7.70
2023-01-12T05:58:37.845Z,7.80
2023-01-12T06:01:08.926Z,7.90
2023-01-12T06:03:36.839Z,7.90
2023-01-12T06:06:04.417Z,7.80
2023-01-12T06:08:31.703Z,7.70
2023-01-12T06:11:02.769Z,7.70
2023-01-12T06:13:48.179Z,7.80
2023-01-12T06:16:14.951Z,7.80
2023-01-12T06:18:41.782Z,7.80
2023-01-12T06:21:09.943Z,7.90
2023-01-12T06:23:36.749Z,7.90
2023-01-12T06:26:05.597Z,7.80
2023-01-12T06:28:32.286Z,7.80
2023-01-12T06:31:01.381Z,7.80
2023-01-12T06:33:28.673Z,7.80
2023-01-12T06:35:55.959Z,7.60
2023-01-12T06:38:24.993Z,7.60
2023-01-12T06:40:52.367Z,7.60
2023-01-12T06:43:19.746Z,7.60
2023-01-12T06:45:46.465Z,7.50
2023-01-12T06:48:13.172Z,7.40
2023-01-12T06:50:40.536Z,7.50
2023-01-12T06:53:07.340Z,7.50
2023-01-12T06:55:34.111Z,7.40
2023-01-12T06:58:04.519Z,7.40
2023-01-12T07:00:32.173Z,7.50
2023-01-12T07:02:58.914Z,7.60
2023-01-12T07:05:25.696Z,7.40
2023-01-12T07:07:58.321Z,7.40
2023-01-12T07:10:24.991Z,7.40
2023-01-12T07:12:51.641Z,7.30
2023-01-12T07:15:18.373Z,7.30
2023-01-12T07:17:45.063Z,7.30
2023-01-12T07:20:11.977Z,7.30
2023-01-12T07:22:39.335Z,7.40
2023-01-12T07:25:06.435Z,7.30
2023-01-12T07:27:33.111Z,7.40
2023-01-12T07:29:59.768Z,7.30
2023-01-12T07:32:27.410Z,7.30
2023-01-12T07:34:54.138Z,7.30
2023-01-12T07:37:20.849Z,7.30
2023-01-12T07:39:47.493Z,7.30
2023-01-12T07:42:23.415Z,7.40
2023-01-12T07:44:51.216Z,7.30
2023-01-12T07:47:17.885Z,7.30
2023-01-12T07:49:44.556Z,7.30
2023-01-12T07:52:12.364Z,7.40
2023-01-12T07:54:39.059Z,7.50
2023-01-12T07:57:10.255Z,7.40
2023-01-12T07:59:37.021Z,7.50
2023-01-12T08:02:04.619Z,7.50
2023-01-12T08:04:31.492Z,7.40
2023-01-12T08:06:58.231Z,7.40
2023-01-12T08:09:25.023Z,7.40
2023-01-12T08:11:51.644Z,7.40
2023-01-12T08:14:38.644Z,7.40
2023-01-12T08:17:12.476Z,7.50
2023-01-12T08:19:49.418Z,7.50
2023-01-12T08:22:21.318Z,7.50
2023-01-12T08:24:53.994Z,7.50
2023-01-12T08:27:23.665Z,7.50
2023-01-12T08:29:55.895Z,7.60
2023-01-12T08:32:23.163Z,7.50
2023-01-12T08:34:52.235Z,7.40
2023-01-12T08:37:22.030Z,7.40
2023-01-12T08:39:49.302Z,7.40
2023-01-12T08:42:16.023Z,7.40
2023-01-12T08:44:43.555Z,7.40
2023-01-12T08:47:22.998Z,7.50
2023-01-12T08:49:49.720Z,7.60
2023-01-12T08:52:16.744Z,7.60
2023-01-12T08:54:43.883Z,7.50
2023-01-12T08:57:10.674Z,7.40
2023-01-12T08:59:37.435Z,7.50
2023-01-12T09:02:04.428Z,7.50
2023-01-12T09:04:31.188Z,7.50
2023-01-12T09:07:00.016Z,7.60
2023-01-12T09:09:27.020Z,7.60
2023-01-12T09:11:53.652Z,7.60
2023-01-12T09:14:20.430Z,7.60
2023-01-12T09:16:47.186Z,7.60
2023-01-12T09:19:14.341Z,7.60
2023-01-12T09:21:41.943Z,7.60
2023-01-12T09:24:09.399Z,7.60
2023-01-12T09:26:41.837Z,7.60
2023-01-12T09:29:10.311Z,7.50
2023-01-12T09:31:38.888Z,7.50
2023-01-12T09:34:05.601Z,7.50
2023-01-12T09:36:37.498Z,7.60
2023-01-12T09:39:06.036Z,7.60
2023-01-12T09:41:57.992Z,7.60
2023-01-12T09:44:47.968Z,7.70
2023-01-12T09:47:30.555Z,7.60
2023-01-12T09:50:10.853Z,7.70
2023-01-12T09:52:42.825Z,7.60
2023-01-12T09:55:17.299Z,7.80
2023-01-12T09:57:59.231Z,7.80
2023-01-12T10:00:28.112Z,7.80
2023-01-12T10:03:06.445Z,7.80
2023-01-12T10:05:51.292Z,7.70
2023-01-12T10:08:35.858Z,7.70
2023-01-12T10:11:17.704Z,7.80
2023-01-12T10:14:03.391Z,7.80
2023-01-12T10:16:58.604Z,7.80
2023-01-12T10:19:49.318Z,7.80
2023-01-12T10:22:37.662Z,7.80
2023-01-12T10:25:16.557Z,7.90
2023-01-12T10:27:46.058Z,7.80
2023-01-12T10:30:33.617Z,8.00
2023-01-12T10:33:23.631Z,7.90
2023-01-12T10:36:01.625Z,7.90
2023-01-12T10:38:39.216Z,8.00
2023-01-12T10:41:12.119Z,8.00
2023-01-12T10:43:40.841Z,8.00
2023-01-12T10:46:15.063Z,7.90
2023-01-12T10:48:55.540Z,7.90
2023-01-12T10:51:28.728Z,8.00
2023-01-12T10:54:16.923Z,7.90
2023-01-12T10:57:19.591Z,7.80
2023-01-12T10:59:53.723Z,7.90
2023-01-12T11:02:20.681Z,7.80
2023-01-12T11:04:51.404Z,7.80
2023-01-12T11:07:25.650Z,7.90
2023-01-12T11:09:53.825Z,8.00
2023-01-12T11:12:38.480Z,8.00
2023-01-12T11:15:11.134Z,7.90
2023-01-12T11:17:56.687Z,7.90
2023-01-12T11:20:29.290Z,7.90
2023-01-12T11:23:01.061Z,8.10
2023-01-12T11:25:32.837Z,8.20
2023-01-12T11:28:36.293Z,8.10
2023-01-12T11:31:22.068Z,8.10
2023-01-12T11:33:58.209Z,8.20
2023-01-12T11:36:30.003Z,8.20
2023-01-12T11:39:06.969Z,8.20
2023-01-12T11:42:08.729Z,8.20
2023-01-12T11:44:43.541Z,8.20
2023-01-12T11:47:22.454Z,8.30
2023-01-12T11:50:07.141Z,8.30
2023-01-12T11:52:35.010Z,8.30
2023-01-12T11:55:02.679Z,8.20
2023-01-12T11:57:45.769Z,8.20
2023-01-12T12:00:46.165Z,8.10
2023-01-12T12:03:25.617Z,8.10
2023-01-12T12:06:05.407Z,8.20
2023-01-12T12:08:58.778Z,8.30
2023-01-12T12:11:42.090Z,8.30
2023-01-12T12:14:28.950Z,8.30
2023-01-12T12:17:21.723Z,8.40
2023-01-12T12:20:07.120Z,8.40
2023-01-12T12:22:51.745Z,8.30
2023-01-12T12:25:34.859Z,8.40
2023-01-12T12:28:23.475Z,8.40
2023-01-12T12:30:56.051Z,8.40
2023-01-12T12:34:09.498Z,8.40
2023-01-12T12:36:48.641Z,8.40
2023-01-12T12:40:10.008Z,8.40
2023-01-12T12:43:21.548Z,8.50
2023-01-12T12:46:08.006Z,8.60
2023-01-12T12:48:54.997Z,8.60
2023-01-12T12:51:24.680Z,8.50
2023-01-12T12:53:54.204Z,8.50
2023-01-12T12:56:23.995Z,8.60
2023-01-12T12:58:55.325Z,8.70
2023-01-12T13:01:25.324Z,8.70
2023-01-12T13:03:53.892Z,8.80
2023-01-12T13:06:34.319Z,8.90
2023-01-12T13:09:22.056Z,8.90
2023-01-12T13:12:41.327Z,9.00
2023-01-12T13:15:26.868Z,8.90
2023-01-12T13:17:55.218Z,8.70
2023-01-12T13:20:54.087Z,8.80
2023-01-12T13:24:02.728Z,8.60
2023-01-12T13:26:35.267Z,8.50
2023-01-12T13:29:23.683Z,8.50
2023-01-12T13:32:31.151Z,8.40
2023-01-12T13:34:57.805Z,8.40
2023-01-12T13:37:30.381Z,8.50
2023-01-12T13:40:15.741Z,8.50
2023-01-12T13:43:03.388Z,8.60
2023-01-12T13:45:30.828Z,8.50
2023-01-12T13:47:57.637Z,8.50
2023-01-12T13:50:27.492Z,8.50
2023-01-12T13:53:01.903Z,8.50
2023-01-12T13:55:31.340Z,8.60
2023-01-12T13:58:04.265Z,8.60
2023-01-12T14:00:35.613Z,8.50
2023-01-12T14:03:04.560Z,8.50
2023-01-12T14:05:57.524Z,8.60
2023-01-12T14:08:52.506Z,8.40
2023-01-12T14:11:37.105Z,8.50
2023-01-12T14:14:53.112Z,8.30
2023-01-12T14:17:53.001Z,8.40
2023-01-12T14:20:28.182Z,8.40
2023-01-12T14:23:33.917Z,8.30
2023-01-12T14:26:09.226Z,8.30
2023-01-12T14:28:37.220Z,8.40
2023-01-12T14:31:06.467Z,8.30
2023-01-12T14:33:35.939Z,8.40
2023-01-12T14:36:05.950Z,8.40
2023-01-12T14:38:35.063Z,8.50
2023-01-12T14:41:27.437Z,8.50
2023-01-12T14:44:13.291Z,8.50
2023-01-12T14:46:53.487Z,8.50
2023-01-12T14:49:31.668Z,8.60
2023-01-12T14:52:00.895Z,8.50
2023-01-12T14:54:29.317Z,8.50
2023-01-12T14:57:15.677Z,8.50
2023-01-12T14:59:45.363Z,8.40
2023-01-12T15:02:15.100Z,8.40
2023-01-12T15:04:57.286Z,8.30
2023-01-12T15:07:26.575Z,8.30
2023-01-12T15:09:57.484Z,8.40
2023-01-12T15:12:30.300Z,8.40
2023-01-12T15:15:25.126Z,8.30
2023-01-12T15:18:12.831Z,8.30
2023-01-12T15:21:02.616Z,8.30
2023-01-12T15:23:54.023Z,8.30
2023-01-12T15:26:21.541Z,8.30
2023-01-12T15:28:50.603Z,8.20
2023-01-12T15:31:29.293Z,8.20
2023-01-12T15:33:56.627Z,8.30
2023-01-12T15:36:23.531Z,8.30
2023-01-12T15:38:50.377Z,8.20
2023-01-12T15:41:44.967Z,8.10
2023-01-12T15:44:17.160Z,8.20
2023-01-12T15:46:44.405Z,8.20
2023-01-12T15:49:15.484Z,8.20
2023-01-12T15:51:46.638Z,8.20
2023-01-12T15:54:14.001Z,8.20
2023-01-12T15:56:40.971Z,8.20
2023-01-12T15:59:07.614Z,8.30
2023-01-12T16:01:38.966Z,8.20
2023-01-12T16:04:40.498Z,8.20
2023-01-12T16:06:53.058Z,8.20
2023-01-12T16:09:19.895Z,8.20
2023-01-12T16:11:46.656Z,8.20
2023-01-12T16:14:14.552Z,8.20
2023-01-12T16:16:41.598Z,8.10
2023-01-12T16:19:09.408Z,8.20
2023-01-12T16:21:36.568Z,8.10
2023-01-12T16:24:03.539Z,8.20
2023-01-12T16:26:30.615Z,8.20
2023-01-12T16:28:57.892Z,8.10
2023-01-12T16:31:25.448Z,8.20
2023-01-12T16:33:52.236Z,8.20
2023-01-12T16:36:19.315Z,8.20
2023-01-12T16:38:45.997Z,8.10
2023-01-12T16:41:22.215Z,8.10
2023-01-12T16:43:50.632Z,8.10
2023-01-12T16:46:17.780Z,8.10
2023-01-12T16:48:44.623Z,8.10
2023-01-12T16:51:16.553Z,8.10
2023-01-12T16:53:43.963Z,8.00
2023-01-12T16:56:16.120Z,8.10
2023-01-12T16:58:48.618Z,8.20
2023-01-12T17:01:18.666Z,8.20
2023-01-12T17:03:45.900Z,8.20
2023-01-12T17:06:19.531Z,8.20
2023-01-12T17:08:46.707Z,8.20
2023-01-12T17:11:19.140Z,8.10
2023-01-12T17:13:52.280Z,8.10
2023-01-12T17:16:19.796Z,8.10
2023-01-12T17:18:47.503Z,8.10
2023-01-12T17:21:14.730Z,8.20
2023-01-12T17:23:43.004Z,8.20
2023-01-12T17:26:17.592Z,8.20
2023-01-12T17:28:46.718Z,8.30
2023-01-12T17:31:18.637Z,8.20
2023-01-12T17:33:46.478Z,8.20
2023-01-12T17:36:13.569Z,8.30
2023-01-12T17:38:40.637Z,8.30
2023-01-12T17:41:32.096Z,8.40
2023-01-12T17:44:00.185Z,8.30
2023-01-12T17:46:27.101Z,8.30
2023-01-12T17:48:56.928Z,8.40
2023-01-12T17:51:23.697Z,8.40
2023-01-12T17:53:56.860Z,8.50
2023-01-12T17:56:25.084Z,8.40
2023-01-12T17:58:55.503Z,8.40
2023-01-12T18:01:24.435Z,8.50
2023-01-12T18:03:52.093Z,8.50
2023-01-12T18:06:26.564Z,8.50
2023-01-12T18:08:56.416Z,8.60
2023-01-12T18:11:24.153Z,8.60
2023-01-12T18:13:51.373Z,8.50
2023-01-12T18:16:18.738Z,8.50
2023-01-12T18:18:46.200Z,8.50
2023-01-12T18:21:16.156Z,8.40
2023-01-12T18:23:43.485Z,8.40
2023-01-12T18:26:18.095Z,8.40
2023-01-12T18:28:45.010Z,8.40
2023-01-12T18:31:17.165Z,8.40
2023-01-12T18:33:45.353Z,8.30
2023-01-12T18:36:15.411Z,8.40
2023-01-12T18:38:42.056Z,8.40
2023-01-12T18:41:28.159Z,8.40
2023-01-12T18:43:55.122Z,8.30
2023-01-12T18:46:41.759Z,8.40
2023-01-12T18:49:08.767Z,8.40
2023-01-12T18:51:53.945Z,8.40
2023-01-12T18:54:20.577Z,8.40
2023-01-12T18:56:49.656Z,8.30
2023-01-12T18:59:16.481Z,8.40
2023-01-12T19:01:43.239Z,8.50
2023-01-12T19:04:14.323Z,8.40
2023-01-12T19:06:44.928Z,8.40
2023-01-12T19:09:31.338Z,8.40
2023-01-12T19:11:58.843Z,8.40
2023-01-12T19:14:44.446Z,8.50
2023-01-12T19:17:29.931Z,8.50
2023-01-12T19:19:58.580Z,8.50
2023-01-12T19:22:45.122Z,8.40
2023-01-12T19:25:36.087Z,8.40
2023-01-12T19:28:22.392Z,8.40
2023-01-12T19:30:49.122Z,8.50
2023-01-12T19:33:16.572Z,8.40
2023-01-12T19:35:44.907Z,8.40
2023-01-12T19:38:13.382Z,8.40
2023-01-12T19:40:53.474Z,8.40
2023-01-12T19:43:26.103Z,8.40
2023-01-12T19:45:59.288Z,8.40
2023-01-12T19:48:26.647Z,8.40
2023-01-12T19:50:54.092Z,8.40
2023-01-12T19:53:23.443Z,8.40
2023-01-12T19:55:50.636Z,8.40
2023-01-12T19:58:17.855Z,8.40
2023-01-12T20:00:46.098Z,8.40
2023-01-12T20:03:14.825Z,8.40
2023-01-12T20:05:42.340Z,8.40
2023-01-12T20:08:09.714Z,8.40
2023-01-12T20:10:38.113Z,8.40
2023-01-12T20:13:07.950Z,8.50
2023-01-12T20:15:37.504Z,8.40
2023-01-12T20:18:04.371Z,8.50
2023-01-12T20:20:31.473Z,8.50
2023-01-12T20:22:58.511Z,8.60
2023-01-12T20:25:28.101Z,8.50
2023-01-12T20:27:55.287Z,8.60
2023-01-12T20:30:36.823Z,8.60
2023-01-12T20:33:04.009Z,8.50
2023-01-12T20:35:30.782Z,8.60
2023-01-12T20:37:57.426Z,8.50
2023-01-12T20:40:24.090Z,8.40
2023-01-12T20:42:50.764Z,8.60
2023-01-12T20:45:18.851Z,8.50
2023-01-12T20:47:45.534Z,8.50
2023-01-12T20:50:14.680Z,8.40
2023-01-12T20:52:41.831Z,8.40
2023-01-12T20:55:09.202Z,8.30
2023-01-12T20:57:38.679Z,8.30
2023-01-12T21:00:10.204Z,8.30
2023-01-12T21:02:37.243Z,8.30
2023-01-12T21:05:04.523Z,8.30
2023-01-12T21:07:31.605Z,8.40
2023-01-12T21:09:58.302Z,8.40
2023-01-12T21:12:27.397Z,8.30
2023-01-12T21:14:54.674Z,8.30
2023-01-12T21:17:21.613Z,8.30
2023-01-12T21:19:48.578Z,8.30
2023-01-12T21:22:15.292Z,8.30
2023-01-12T21:24:42.055Z,8.40
2023-01-12T21:27:08.733Z,8.40
2023-01-12T21:29:35.538Z,8.40
2023-01-12T21:32:02.239Z,8.30
2023-01-12T21:34:29.017Z,8.30
2023-01-12T21:36:55.684Z,8.40
2023-01-12T21:39:22.318Z,8.50
2023-01-12T21:42:07.813Z,8.50
2023-01-12T21:44:34.558Z,8.40
2023-01-12T21:47:01.209Z,8.40
2023-01-12T21:49:27.838Z,8.40
2023-01-12T21:51:54.464Z,8.40
2023-01-12T21:54:21.111Z,8.40
2023-01-12T21:56:47.750Z,8.40
2023-01-12T21:59:14.619Z,8.40
2023-01-12T22:01:41.404Z,8.30
2023-01-12T22:04:08.138Z,8.30
2023-01-12T22:06:34.813Z,8.40
2023-01-12T22:09:01.476Z,8.40
2023-01-12T22:11:28.142Z,8.30
2023-01-12T22:13:54.856Z,8.40
2023-01-12T22:16:21.655Z,8.50
2023-01-12T22:18:50.143Z,8.60
2023-01-12T22:21:19.143Z,8.50
2023-01-12T22:23:46.451Z,8.50
2023-01-12T22:26:14.783Z,8.40
2023-01-12T22:28:43.700Z,8.40
2023-01-12T22:31:14.808Z,8.40
2023-01-12T22:33:45.313Z,8.40
2023-01-12T22:36:12.512Z,8.40
2023-01-12T22:38:39.254Z,8.40
2023-01-12T22:41:07.084Z,8.50
2023-01-12T22:43:40.293Z,8.60
2023-01-12T22:46:21.290Z,8.60
2023-01-12T22:48:49.753Z,8.60
2023-01-12T22:51:17.727Z,8.60
2023-01-12T22:53:44.388Z,8.50
2023-01-12T22:56:11.996Z,8.50
2023-01-12T22:58:39.586Z,8.50
2023-01-12T23:01:09.675Z,8.50
2023-01-12T23:03:37.619Z,8.60
2023-01-12T23:06:05.535Z,8.40
2023-01-12T23:08:33.132Z,8.40
2023-01-12T23:11:05.690Z,8.50
2023-01-12T23:13:32.631Z,8.50
2023-01-12T23:16:03.619Z,8.50
2023-01-12T23:18:31.778Z,8.50
2023-01-12T23:21:03.003Z,8.50
2023-01-12T23:23:30.871Z,8.60
2023-01-12T23:26:04.861Z,8.60
2023-01-12T23:28:35.672Z,8.50
2023-01-12T23:31:08.911Z,8.60
2023-01-12T23:33:36.964Z,8.50
2023-01-12T23:36:06.636Z,8.50
2023-01-12T23:38:33.456Z,8.70
2023-01-12T23:41:08.726Z,8.60
2023-01-12T23:43:35.572Z,8.60
2023-01-12T23:46:02.427Z,8.60
2023-01-12T23:48:29.702Z,8.70
2023-01-12T23:51:01.193Z,8.70
2023-01-12T23:53:29.062Z,8.60
2023-01-12T23:55:56.913Z,8.60
2023-01-12T23:58:24.906Z,8.70
